Dallas, Texas
Traffic Map
Current Weather Conditions
Dallas, Texas
Few Clouds
Few Clouds
26°
Feels Like: 27°
Wind Chill: 26° Ceiling: Unl
Heat Index: 27° Visibility: 10mi
Dew Point: 20° Wind: 9mph
Humidity: 69% Direction: 160° (SSE)
Pressure: 29.78in Gusts: 0mph
Raw Report DataKDAL 010553Z 16008KT 10SM FEW080 26/20 A2978 RMK AO2 SLP076 T02610200 10311 20261 403330217 53002
Traffic Incident Summary
Active as of:
Severity:
Category:
InformationThere was an issue retrieving the traffic information for this location. Please try a different location or try again shortly.
Advertisements
Track Severe Weather on mobile